<?xml version="1.0" encoding="UTF-8" standalone="no" ?>
<gpx xmlns="http://www.topografix.com/GPX/1/1" xmlns:xsi="http://www.w3.org/2001/XMLSchema-instance" xsi:schemaLocation="http://www.topografix.com/GPX/1/1 http://www.topografix.com/GPX/1/1/gpx.xsd" version="1.1" creator="VisuGPX - https://www.visugpx.com">
  <metadata>
    <name>14380444-Enregistrement du 09/03/2022</name>
  </metadata>
  <wpt lat="45.31857" lon="4.76196">
    <ele>145.9</ele>
    <name><![CDATA[OpenRunner_1646814980.jpg]]></name>
  </wpt>
  <wpt lat="45.31848" lon="4.76196">
    <ele>148.2</ele>
    <name><![CDATA[OpenRunner_1646815009.jpg]]></name>
  </wpt>
  <wpt lat="45.32733" lon="4.74363">
    <ele>353.2</ele>
    <name><![CDATA[OpenRunner_1646817603.jpg]]></name>
  </wpt>
  <wpt lat="45.31765" lon="4.76178">
    <ele>172.7</ele>
    <name><![CDATA[OpenRunner_1646821405.jpg]]></name>
  </wpt>
  <wpt lat="45.31751" lon="4.76263">
    <ele>164.9</ele>
    <name><![CDATA[OpenRunner_1646821530.jpg]]></name>
  </wpt>
  <trk>
    <name><![CDATA[14380444-Enregistrement du 09/03/2022]]></name>
    <extensions>
      <line xmlns="http://www.topografix.com/GPX/gpx_style/0/2">
        <color>0000FF</color>
        <width>4</width>
      </line>
    </extensions>
    <trkseg>
      <trkpt lat="45.32309" lon="4.77773">
        <ele>136</ele>
        <time>2022-03-09T17:08:26Z</time>
      </trkpt>
      <trkpt lat="45.32303" lon="4.77788">
        <ele>136</ele>
        <time>2022-03-09T17:08:42Z</time>
      </trkpt>
      <trkpt lat="45.32316" lon="4.77778">
        <ele>136</ele>
        <time>2022-03-09T17:09:02Z</time>
      </trkpt>
      <trkpt lat="45.32321" lon="4.77781">
        <ele>136</ele>
        <time>2022-03-09T17:09:09Z</time>
      </trkpt>
      <trkpt lat="45.3231" lon="4.77786">
        <ele>136</ele>
        <time>2022-03-09T17:09:25Z</time>
      </trkpt>
      <trkpt lat="45.32289" lon="4.77753">
        <ele>136</ele>
        <time>2022-03-09T17:10:06Z</time>
      </trkpt>
      <trkpt lat="45.32218" lon="4.77591">
        <ele>137</ele>
        <time>2022-03-09T17:13:05Z</time>
      </trkpt>
      <trkpt lat="45.32175" lon="4.77479">
        <ele>137</ele>
        <time>2022-03-09T17:15:05Z</time>
      </trkpt>
      <trkpt lat="45.32061" lon="4.77224">
        <ele>137</ele>
        <time>2022-03-09T17:19:49Z</time>
      </trkpt>
      <trkpt lat="45.32053" lon="4.77189">
        <ele>137</ele>
        <time>2022-03-09T17:20:23Z</time>
      </trkpt>
      <trkpt lat="45.32044" lon="4.77183">
        <ele>137</ele>
        <time>2022-03-09T17:20:37Z</time>
      </trkpt>
      <trkpt lat="45.32039" lon="4.77184">
        <ele>137</ele>
        <time>2022-03-09T17:20:43Z</time>
      </trkpt>
      <trkpt lat="45.32037" lon="4.77156">
        <ele>137</ele>
        <time>2022-03-09T17:21:10Z</time>
      </trkpt>
      <trkpt lat="45.32023" lon="4.77134">
        <ele>137</ele>
        <time>2022-03-09T17:21:37Z</time>
      </trkpt>
      <trkpt lat="45.32022" lon="4.77118">
        <ele>137</ele>
        <time>2022-03-09T17:21:53Z</time>
      </trkpt>
      <trkpt lat="45.31994" lon="4.77057">
        <ele>137</ele>
        <time>2022-03-09T17:23:01Z</time>
      </trkpt>
      <trkpt lat="45.31991" lon="4.77037">
        <ele>137</ele>
        <time>2022-03-09T17:23:20Z</time>
      </trkpt>
      <trkpt lat="45.31967" lon="4.7701">
        <ele>137</ele>
        <time>2022-03-09T17:24:01Z</time>
      </trkpt>
      <trkpt lat="45.3197" lon="4.76993">
        <ele>137</ele>
        <time>2022-03-09T17:24:17Z</time>
      </trkpt>
      <trkpt lat="45.31963" lon="4.7699">
        <ele>137</ele>
        <time>2022-03-09T17:24:27Z</time>
      </trkpt>
      <trkpt lat="45.31962" lon="4.76971">
        <ele>137</ele>
        <time>2022-03-09T17:24:45Z</time>
      </trkpt>
      <trkpt lat="45.3195" lon="4.76959">
        <ele>138</ele>
        <time>2022-03-09T17:25:05Z</time>
      </trkpt>
      <trkpt lat="45.31963" lon="4.76959">
        <ele>138</ele>
        <time>2022-03-09T17:25:22Z</time>
      </trkpt>
      <trkpt lat="45.31964" lon="4.76953">
        <ele>138</ele>
        <time>2022-03-09T17:25:28Z</time>
      </trkpt>
      <trkpt lat="45.31955" lon="4.76946">
        <ele>138</ele>
        <time>2022-03-09T17:25:41Z</time>
      </trkpt>
      <trkpt lat="45.31947" lon="4.76945">
        <ele>138</ele>
        <time>2022-03-09T17:25:52Z</time>
      </trkpt>
      <trkpt lat="45.31938" lon="4.76936">
        <ele>138</ele>
        <time>2022-03-09T17:26:07Z</time>
      </trkpt>
      <trkpt lat="45.31908" lon="4.76885">
        <ele>138</ele>
        <time>2022-03-09T17:27:09Z</time>
      </trkpt>
      <trkpt lat="45.31917" lon="4.76885">
        <ele>138</ele>
        <time>2022-03-09T17:27:21Z</time>
      </trkpt>
      <trkpt lat="45.31924" lon="4.76879">
        <ele>138</ele>
        <time>2022-03-09T17:27:32Z</time>
      </trkpt>
      <trkpt lat="45.3192" lon="4.76867">
        <ele>138</ele>
        <time>2022-03-09T17:27:45Z</time>
      </trkpt>
      <trkpt lat="45.31929" lon="4.76848">
        <ele>137</ele>
        <time>2022-03-09T17:28:06Z</time>
      </trkpt>
      <trkpt lat="45.31921" lon="4.76841">
        <ele>137</ele>
        <time>2022-03-09T17:28:19Z</time>
      </trkpt>
      <trkpt lat="45.31891" lon="4.76831">
        <ele>137</ele>
        <time>2022-03-09T17:29:00Z</time>
      </trkpt>
      <trkpt lat="45.31804" lon="4.76646">
        <ele>137</ele>
        <time>2022-03-09T17:32:29Z</time>
      </trkpt>
      <trkpt lat="45.31792" lon="4.76627">
        <ele>138</ele>
        <time>2022-03-09T17:32:53Z</time>
      </trkpt>
      <trkpt lat="45.31789" lon="4.76612">
        <ele>139</ele>
        <time>2022-03-09T17:33:07Z</time>
      </trkpt>
      <trkpt lat="45.31795" lon="4.76596">
        <ele>139</ele>
        <time>2022-03-09T17:33:24Z</time>
      </trkpt>
      <trkpt lat="45.31841" lon="4.76538">
        <ele>139</ele>
        <time>2022-03-09T17:34:46Z</time>
      </trkpt>
      <trkpt lat="45.31834" lon="4.76521">
        <ele>140</ele>
        <time>2022-03-09T17:35:05Z</time>
      </trkpt>
      <trkpt lat="45.31837" lon="4.76515">
        <ele>140</ele>
        <time>2022-03-09T17:35:12Z</time>
      </trkpt>
      <trkpt lat="45.31865" lon="4.76488">
        <ele>141</ele>
        <time>2022-03-09T17:35:57Z</time>
      </trkpt>
      <trkpt lat="45.31896" lon="4.76466">
        <ele>141</ele>
        <time>2022-03-09T17:36:43Z</time>
      </trkpt>
      <trkpt lat="45.31906" lon="4.76447">
        <ele>142</ele>
        <time>2022-03-09T17:37:05Z</time>
      </trkpt>
      <trkpt lat="45.31906" lon="4.76413">
        <ele>143</ele>
        <time>2022-03-09T17:37:37Z</time>
      </trkpt>
      <trkpt lat="45.31893" lon="4.76382">
        <ele>143</ele>
        <time>2022-03-09T17:38:11Z</time>
      </trkpt>
      <trkpt lat="45.31897" lon="4.76363">
        <ele>143</ele>
        <time>2022-03-09T17:38:30Z</time>
      </trkpt>
      <trkpt lat="45.31895" lon="4.76313">
        <ele>144</ele>
        <time>2022-03-09T17:39:17Z</time>
      </trkpt>
      <trkpt lat="45.31888" lon="4.76303">
        <ele>145</ele>
        <time>2022-03-09T17:39:30Z</time>
      </trkpt>
      <trkpt lat="45.31882" lon="4.76303">
        <ele>145</ele>
        <time>2022-03-09T17:39:38Z</time>
      </trkpt>
      <trkpt lat="45.3187" lon="4.76271">
        <ele>148</ele>
        <time>2022-03-09T17:40:12Z</time>
      </trkpt>
      <trkpt lat="45.31859" lon="4.76255">
        <ele>150</ele>
        <time>2022-03-09T17:40:33Z</time>
      </trkpt>
      <trkpt lat="45.31859" lon="4.76234">
        <ele>152</ele>
        <time>2022-03-09T17:40:53Z</time>
      </trkpt>
      <trkpt lat="45.31853" lon="4.76219">
        <ele>153</ele>
        <time>2022-03-09T17:41:09Z</time>
      </trkpt>
      <trkpt lat="45.31862" lon="4.76191">
        <ele>154</ele>
        <time>2022-03-09T17:41:38Z</time>
      </trkpt>
      <trkpt lat="45.31861" lon="4.76195">
        <ele>154</ele>
        <time>2022-03-09T17:41:42Z</time>
      </trkpt>
      <trkpt lat="45.31851" lon="4.76201">
        <ele>154</ele>
        <time>2022-03-09T17:41:56Z</time>
      </trkpt>
      <trkpt lat="45.31849" lon="4.76199">
        <ele>155</ele>
        <time>2022-03-09T17:41:59Z</time>
      </trkpt>
      <trkpt lat="45.31862" lon="4.76194">
        <ele>154</ele>
        <time>2022-03-09T17:42:17Z</time>
      </trkpt>
      <trkpt lat="45.3187" lon="4.76185">
        <ele>154</ele>
        <time>2022-03-09T17:42:31Z</time>
      </trkpt>
      <trkpt lat="45.31872" lon="4.76189">
        <ele>153</ele>
        <time>2022-03-09T17:42:36Z</time>
      </trkpt>
      <trkpt lat="45.31877" lon="4.76185">
        <ele>153</ele>
        <time>2022-03-09T17:42:43Z</time>
      </trkpt>
      <trkpt lat="45.31874" lon="4.76188">
        <ele>153</ele>
        <time>2022-03-09T17:42:48Z</time>
      </trkpt>
      <trkpt lat="45.31881" lon="4.76188">
        <ele>153</ele>
        <time>2022-03-09T17:42:58Z</time>
      </trkpt>
      <trkpt lat="45.31895" lon="4.76177">
        <ele>152</ele>
        <time>2022-03-09T17:43:19Z</time>
      </trkpt>
      <trkpt lat="45.31895" lon="4.76172">
        <ele>152</ele>
        <time>2022-03-09T17:43:24Z</time>
      </trkpt>
      <trkpt lat="45.31905" lon="4.7618">
        <ele>151</ele>
        <time>2022-03-09T17:43:39Z</time>
      </trkpt>
      <trkpt lat="45.31918" lon="4.76176">
        <ele>150</ele>
        <time>2022-03-09T17:43:57Z</time>
      </trkpt>
      <trkpt lat="45.31919" lon="4.76159">
        <ele>152</ele>
        <time>2022-03-09T17:44:13Z</time>
      </trkpt>
      <trkpt lat="45.31927" lon="4.76162">
        <ele>151</ele>
        <time>2022-03-09T17:44:24Z</time>
      </trkpt>
      <trkpt lat="45.31935" lon="4.76156">
        <ele>152</ele>
        <time>2022-03-09T17:44:36Z</time>
      </trkpt>
      <trkpt lat="45.31941" lon="4.76159">
        <ele>151</ele>
        <time>2022-03-09T17:44:44Z</time>
      </trkpt>
      <trkpt lat="45.3194" lon="4.76131">
        <ele>156</ele>
        <time>2022-03-09T17:45:11Z</time>
      </trkpt>
      <trkpt lat="45.31951" lon="4.76143">
        <ele>153</ele>
        <time>2022-03-09T17:45:29Z</time>
      </trkpt>
      <trkpt lat="45.31944" lon="4.76142">
        <ele>154</ele>
        <time>2022-03-09T17:45:38Z</time>
      </trkpt>
      <trkpt lat="45.31936" lon="4.76127">
        <ele>157</ele>
        <time>2022-03-09T17:45:56Z</time>
      </trkpt>
      <trkpt lat="45.31938" lon="4.7614">
        <ele>154</ele>
        <time>2022-03-09T17:46:09Z</time>
      </trkpt>
      <trkpt lat="45.31929" lon="4.76128">
        <ele>157</ele>
        <time>2022-03-09T17:46:25Z</time>
      </trkpt>
      <trkpt lat="45.31939" lon="4.76114">
        <ele>159</ele>
        <time>2022-03-09T17:46:44Z</time>
      </trkpt>
      <trkpt lat="45.31968" lon="4.76107">
        <ele>160</ele>
        <time>2022-03-09T17:47:23Z</time>
      </trkpt>
      <trkpt lat="45.31978" lon="4.76098">
        <ele>162</ele>
        <time>2022-03-09T17:47:39Z</time>
      </trkpt>
      <trkpt lat="45.32" lon="4.7611">
        <ele>160</ele>
        <time>2022-03-09T17:48:10Z</time>
      </trkpt>
      <trkpt lat="45.32003" lon="4.76103">
        <ele>161</ele>
        <time>2022-03-09T17:48:18Z</time>
      </trkpt>
      <trkpt lat="45.32" lon="4.76096">
        <ele>163</ele>
        <time>2022-03-09T17:48:26Z</time>
      </trkpt>
      <trkpt lat="45.32011" lon="4.76088">
        <ele>164</ele>
        <time>2022-03-09T17:48:42Z</time>
      </trkpt>
      <trkpt lat="45.32014" lon="4.76068">
        <ele>170</ele>
        <time>2022-03-09T17:49:01Z</time>
      </trkpt>
      <trkpt lat="45.32035" lon="4.76048">
        <ele>176</ele>
        <time>2022-03-09T17:49:35Z</time>
      </trkpt>
      <trkpt lat="45.32038" lon="4.76032">
        <ele>181</ele>
        <time>2022-03-09T17:49:51Z</time>
      </trkpt>
      <trkpt lat="45.32048" lon="4.76024">
        <ele>183</ele>
        <time>2022-03-09T17:50:06Z</time>
      </trkpt>
      <trkpt lat="45.32048" lon="4.76012">
        <ele>188</ele>
        <time>2022-03-09T17:50:17Z</time>
      </trkpt>
      <trkpt lat="45.3206" lon="4.75997">
        <ele>192</ele>
        <time>2022-03-09T17:50:38Z</time>
      </trkpt>
      <trkpt lat="45.32078" lon="4.76">
        <ele>189</ele>
        <time>2022-03-09T17:51:03Z</time>
      </trkpt>
      <trkpt lat="45.32079" lon="4.75982">
        <ele>194</ele>
        <time>2022-03-09T17:51:20Z</time>
      </trkpt>
      <trkpt lat="45.32084" lon="4.75977">
        <ele>195</ele>
        <time>2022-03-09T17:51:28Z</time>
      </trkpt>
      <trkpt lat="45.32093" lon="4.75976">
        <ele>193</ele>
        <time>2022-03-09T17:51:40Z</time>
      </trkpt>
      <trkpt lat="45.32124" lon="4.75995">
        <ele>179</ele>
        <time>2022-03-09T17:52:25Z</time>
      </trkpt>
      <trkpt lat="45.32133" lon="4.75995">
        <ele>176</ele>
        <time>2022-03-09T17:52:37Z</time>
      </trkpt>
      <trkpt lat="45.32133" lon="4.75968">
        <ele>185</ele>
        <time>2022-03-09T17:53:02Z</time>
      </trkpt>
      <trkpt lat="45.32144" lon="4.75925">
        <ele>195</ele>
        <time>2022-03-09T17:53:45Z</time>
      </trkpt>
      <trkpt lat="45.32161" lon="4.75907">
        <ele>196</ele>
        <time>2022-03-09T17:54:13Z</time>
      </trkpt>
      <trkpt lat="45.32177" lon="4.75902">
        <ele>193</ele>
        <time>2022-03-09T17:54:35Z</time>
      </trkpt>
      <trkpt lat="45.32198" lon="4.75851">
        <ele>202</ele>
        <time>2022-03-09T17:55:31Z</time>
      </trkpt>
      <trkpt lat="45.32221" lon="4.75825">
        <ele>202</ele>
        <time>2022-03-09T17:56:10Z</time>
      </trkpt>
      <trkpt lat="45.32234" lon="4.75765">
        <ele>209</ele>
        <time>2022-03-09T17:57:09Z</time>
      </trkpt>
      <trkpt lat="45.32233" lon="4.7575">
        <ele>212</ele>
        <time>2022-03-09T17:57:23Z</time>
      </trkpt>
      <trkpt lat="45.32204" lon="4.75702">
        <ele>231</ele>
        <time>2022-03-09T17:58:22Z</time>
      </trkpt>
      <trkpt lat="45.32192" lon="4.75701">
        <ele>235</ele>
        <time>2022-03-09T17:58:38Z</time>
      </trkpt>
      <trkpt lat="45.32191" lon="4.75698">
        <ele>235</ele>
        <time>2022-03-09T17:58:42Z</time>
      </trkpt>
      <trkpt lat="45.32192" lon="4.75687">
        <ele>237</ele>
        <time>2022-03-09T17:58:52Z</time>
      </trkpt>
      <trkpt lat="45.32215" lon="4.75645">
        <ele>239</ele>
        <time>2022-03-09T17:59:42Z</time>
      </trkpt>
      <trkpt lat="45.32236" lon="4.75634">
        <ele>237</ele>
        <time>2022-03-09T18:00:12Z</time>
      </trkpt>
      <trkpt lat="45.32251" lon="4.75634">
        <ele>234</ele>
        <time>2022-03-09T18:00:32Z</time>
      </trkpt>
      <trkpt lat="45.32302" lon="4.75658">
        <ele>229</ele>
        <time>2022-03-09T18:01:43Z</time>
      </trkpt>
      <trkpt lat="45.32328" lon="4.75657">
        <ele>231</ele>
        <time>2022-03-09T18:02:18Z</time>
      </trkpt>
      <trkpt lat="45.32328" lon="4.75649">
        <ele>232</ele>
        <time>2022-03-09T18:02:26Z</time>
      </trkpt>
      <trkpt lat="45.32319" lon="4.75636">
        <ele>234</ele>
        <time>2022-03-09T18:02:43Z</time>
      </trkpt>
      <trkpt lat="45.32313" lon="4.75614">
        <ele>239</ele>
        <time>2022-03-09T18:03:05Z</time>
      </trkpt>
      <trkpt lat="45.32305" lon="4.75605">
        <ele>241</ele>
        <time>2022-03-09T18:03:19Z</time>
      </trkpt>
      <trkpt lat="45.32305" lon="4.75591">
        <ele>244</ele>
        <time>2022-03-09T18:03:32Z</time>
      </trkpt>
      <trkpt lat="45.32278" lon="4.75558">
        <ele>251</ele>
        <time>2022-03-09T18:04:19Z</time>
      </trkpt>
      <trkpt lat="45.32271" lon="4.7552">
        <ele>257</ele>
        <time>2022-03-09T18:04:56Z</time>
      </trkpt>
      <trkpt lat="45.32245" lon="4.75452">
        <ele>269</ele>
        <time>2022-03-09T18:06:09Z</time>
      </trkpt>
      <trkpt lat="45.32244" lon="4.75441">
        <ele>270</ele>
        <time>2022-03-09T18:06:19Z</time>
      </trkpt>
      <trkpt lat="45.32269" lon="4.75431">
        <ele>270</ele>
        <time>2022-03-09T18:06:54Z</time>
      </trkpt>
      <trkpt lat="45.3229" lon="4.75444">
        <ele>268</ele>
        <time>2022-03-09T18:07:24Z</time>
      </trkpt>
      <trkpt lat="45.32319" lon="4.7548">
        <ele>261</ele>
        <time>2022-03-09T18:08:16Z</time>
      </trkpt>
      <trkpt lat="45.32338" lon="4.75485">
        <ele>259</ele>
        <time>2022-03-09T18:08:41Z</time>
      </trkpt>
      <trkpt lat="45.32365" lon="4.75504">
        <ele>258</ele>
        <time>2022-03-09T18:09:22Z</time>
      </trkpt>
      <trkpt lat="45.32386" lon="4.75486">
        <ele>263</ele>
        <time>2022-03-09T18:09:54Z</time>
      </trkpt>
      <trkpt lat="45.32414" lon="4.75452">
        <ele>271</ele>
        <time>2022-03-09T18:10:43Z</time>
      </trkpt>
      <trkpt lat="45.32438" lon="4.75441">
        <ele>274</ele>
        <time>2022-03-09T18:11:17Z</time>
      </trkpt>
      <trkpt lat="45.32445" lon="4.75426">
        <ele>277</ele>
        <time>2022-03-09T18:11:34Z</time>
      </trkpt>
      <trkpt lat="45.32453" lon="4.75424">
        <ele>278</ele>
        <time>2022-03-09T18:11:45Z</time>
      </trkpt>
      <trkpt lat="45.3247" lon="4.75428">
        <ele>277</ele>
        <time>2022-03-09T18:12:08Z</time>
      </trkpt>
      <trkpt lat="45.32496" lon="4.75413">
        <ele>281</ele>
        <time>2022-03-09T18:12:45Z</time>
      </trkpt>
      <trkpt lat="45.32522" lon="4.75378">
        <ele>285</ele>
        <time>2022-03-09T18:13:33Z</time>
      </trkpt>
      <trkpt lat="45.32543" lon="4.75363">
        <ele>286</ele>
        <time>2022-03-09T18:14:04Z</time>
      </trkpt>
      <trkpt lat="45.32544" lon="4.75312">
        <ele>293</ele>
        <time>2022-03-09T18:14:52Z</time>
      </trkpt>
      <trkpt lat="45.3254" lon="4.75283">
        <ele>297</ele>
        <time>2022-03-09T18:15:20Z</time>
      </trkpt>
      <trkpt lat="45.32546" lon="4.75271">
        <ele>298</ele>
        <time>2022-03-09T18:15:34Z</time>
      </trkpt>
      <trkpt lat="45.32541" lon="4.75251">
        <ele>301</ele>
        <time>2022-03-09T18:15:54Z</time>
      </trkpt>
      <trkpt lat="45.32544" lon="4.75225">
        <ele>303</ele>
        <time>2022-03-09T18:16:18Z</time>
      </trkpt>
      <trkpt lat="45.32555" lon="4.75206">
        <ele>304</ele>
        <time>2022-03-09T18:16:42Z</time>
      </trkpt>
      <trkpt lat="45.32584" lon="4.75085">
        <ele>307</ele>
        <time>2022-03-09T18:18:42Z</time>
      </trkpt>
      <trkpt lat="45.3257" lon="4.75026">
        <ele>309</ele>
        <time>2022-03-09T18:19:40Z</time>
      </trkpt>
      <trkpt lat="45.3254" lon="4.74993">
        <ele>315</ele>
        <time>2022-03-09T18:20:31Z</time>
      </trkpt>
      <trkpt lat="45.32515" lon="4.74972">
        <ele>320</ele>
        <time>2022-03-09T18:21:09Z</time>
      </trkpt>
      <trkpt lat="45.32508" lon="4.74947">
        <ele>323</ele>
        <time>2022-03-09T18:21:35Z</time>
      </trkpt>
      <trkpt lat="45.32506" lon="4.7492">
        <ele>324</ele>
        <time>2022-03-09T18:22:00Z</time>
      </trkpt>
      <trkpt lat="45.32534" lon="4.74879">
        <ele>323</ele>
        <time>2022-03-09T18:22:54Z</time>
      </trkpt>
      <trkpt lat="45.32539" lon="4.74857">
        <ele>324</ele>
        <time>2022-03-09T18:23:15Z</time>
      </trkpt>
      <trkpt lat="45.32539" lon="4.74834">
        <ele>326</ele>
        <time>2022-03-09T18:23:37Z</time>
      </trkpt>
      <trkpt lat="45.32552" lon="4.74785">
        <ele>327</ele>
        <time>2022-03-09T18:24:26Z</time>
      </trkpt>
      <trkpt lat="45.32556" lon="4.74741">
        <ele>330</ele>
        <time>2022-03-09T18:25:08Z</time>
      </trkpt>
      <trkpt lat="45.32555" lon="4.74714">
        <ele>332</ele>
        <time>2022-03-09T18:25:33Z</time>
      </trkpt>
      <trkpt lat="45.32548" lon="4.74688">
        <ele>334</ele>
        <time>2022-03-09T18:25:59Z</time>
      </trkpt>
      <trkpt lat="45.32552" lon="4.74668">
        <ele>335</ele>
        <time>2022-03-09T18:26:19Z</time>
      </trkpt>
      <trkpt lat="45.32548" lon="4.74637">
        <ele>337</ele>
        <time>2022-03-09T18:26:48Z</time>
      </trkpt>
      <trkpt lat="45.32552" lon="4.74625">
        <ele>338</ele>
        <time>2022-03-09T18:27:01Z</time>
      </trkpt>
      <trkpt lat="45.32564" lon="4.74617">
        <ele>337</ele>
        <time>2022-03-09T18:27:18Z</time>
      </trkpt>
      <trkpt lat="45.32581" lon="4.74618">
        <ele>336</ele>
        <time>2022-03-09T18:27:41Z</time>
      </trkpt>
      <trkpt lat="45.32608" lon="4.7461">
        <ele>337</ele>
        <time>2022-03-09T18:28:18Z</time>
      </trkpt>
      <trkpt lat="45.3262" lon="4.74588">
        <ele>339</ele>
        <time>2022-03-09T18:28:44Z</time>
      </trkpt>
      <trkpt lat="45.3263" lon="4.74585">
        <ele>339</ele>
        <time>2022-03-09T18:28:58Z</time>
      </trkpt>
      <trkpt lat="45.32638" lon="4.74575">
        <ele>340</ele>
        <time>2022-03-09T18:29:12Z</time>
      </trkpt>
      <trkpt lat="45.32671" lon="4.74577">
        <ele>340</ele>
        <time>2022-03-09T18:29:56Z</time>
      </trkpt>
      <trkpt lat="45.32683" lon="4.74584">
        <ele>340</ele>
        <time>2022-03-09T18:30:13Z</time>
      </trkpt>
      <trkpt lat="45.32695" lon="4.74584">
        <ele>341</ele>
        <time>2022-03-09T18:30:29Z</time>
      </trkpt>
      <trkpt lat="45.32701" lon="4.74565">
        <ele>343</ele>
        <time>2022-03-09T18:30:49Z</time>
      </trkpt>
      <trkpt lat="45.327" lon="4.7455">
        <ele>344</ele>
        <time>2022-03-09T18:31:03Z</time>
      </trkpt>
      <trkpt lat="45.32708" lon="4.74543">
        <ele>345</ele>
        <time>2022-03-09T18:31:15Z</time>
      </trkpt>
      <trkpt lat="45.32708" lon="4.74491">
        <ele>348</ele>
        <time>2022-03-09T18:32:04Z</time>
      </trkpt>
      <trkpt lat="45.3271" lon="4.74461">
        <ele>349</ele>
        <time>2022-03-09T18:32:33Z</time>
      </trkpt>
      <trkpt lat="45.32715" lon="4.74448">
        <ele>349</ele>
        <time>2022-03-09T18:32:46Z</time>
      </trkpt>
      <trkpt lat="45.32714" lon="4.74424">
        <ele>349</ele>
        <time>2022-03-09T18:33:09Z</time>
      </trkpt>
      <trkpt lat="45.32733" lon="4.74364">
        <ele>351</ele>
        <time>2022-03-09T18:34:11Z</time>
      </trkpt>
      <trkpt lat="45.32732" lon="4.74332">
        <ele>351</ele>
        <time>2022-03-09T18:34:41Z</time>
      </trkpt>
      <trkpt lat="45.3271" lon="4.74269">
        <ele>352</ele>
        <time>2022-03-09T18:35:47Z</time>
      </trkpt>
      <trkpt lat="45.32698" lon="4.74261">
        <ele>353</ele>
        <time>2022-03-09T18:36:04Z</time>
      </trkpt>
      <trkpt lat="45.32664" lon="4.74253">
        <ele>354</ele>
        <time>2022-03-09T18:36:50Z</time>
      </trkpt>
      <trkpt lat="45.32656" lon="4.74246">
        <ele>354</ele>
        <time>2022-03-09T18:37:03Z</time>
      </trkpt>
      <trkpt lat="45.3259" lon="4.74215">
        <ele>352</ele>
        <time>2022-03-09T18:38:36Z</time>
      </trkpt>
      <trkpt lat="45.32545" lon="4.74156">
        <ele>356</ele>
        <time>2022-03-09T18:39:57Z</time>
      </trkpt>
      <trkpt lat="45.32531" lon="4.74131">
        <ele>357</ele>
        <time>2022-03-09T18:40:27Z</time>
      </trkpt>
      <trkpt lat="45.32511" lon="4.74109">
        <ele>358</ele>
        <time>2022-03-09T18:41:01Z</time>
      </trkpt>
      <trkpt lat="45.32496" lon="4.74096">
        <ele>359</ele>
        <time>2022-03-09T18:41:25Z</time>
      </trkpt>
      <trkpt lat="45.32459" lon="4.74075">
        <ele>359</ele>
        <time>2022-03-09T18:42:18Z</time>
      </trkpt>
      <trkpt lat="45.32442" lon="4.74056">
        <ele>359</ele>
        <time>2022-03-09T18:42:47Z</time>
      </trkpt>
      <trkpt lat="45.32421" lon="4.74008">
        <ele>360</ele>
        <time>2022-03-09T18:43:40Z</time>
      </trkpt>
      <trkpt lat="45.32404" lon="4.73952">
        <ele>360</ele>
        <time>2022-03-09T18:44:37Z</time>
      </trkpt>
      <trkpt lat="45.32399" lon="4.73928">
        <ele>360</ele>
        <time>2022-03-09T18:45:00Z</time>
      </trkpt>
      <trkpt lat="45.32401" lon="4.73865">
        <ele>361</ele>
        <time>2022-03-09T18:46:00Z</time>
      </trkpt>
      <trkpt lat="45.32397" lon="4.73847">
        <ele>361</ele>
        <time>2022-03-09T18:46:17Z</time>
      </trkpt>
      <trkpt lat="45.32325" lon="4.73751">
        <ele>362</ele>
        <time>2022-03-09T18:48:29Z</time>
      </trkpt>
      <trkpt lat="45.32297" lon="4.73684">
        <ele>364</ele>
        <time>2022-03-09T18:49:42Z</time>
      </trkpt>
      <trkpt lat="45.32271" lon="4.7364">
        <ele>365</ele>
        <time>2022-03-09T18:50:36Z</time>
      </trkpt>
      <trkpt lat="45.32171" lon="4.73526">
        <ele>369</ele>
        <time>2022-03-09T18:53:27Z</time>
      </trkpt>
      <trkpt lat="45.32119" lon="4.73441">
        <ele>373</ele>
        <time>2022-03-09T18:55:13Z</time>
      </trkpt>
      <trkpt lat="45.32079" lon="4.73392">
        <ele>376</ele>
        <time>2022-03-09T18:56:23Z</time>
      </trkpt>
      <trkpt lat="45.32064" lon="4.73379">
        <ele>377</ele>
        <time>2022-03-09T18:56:47Z</time>
      </trkpt>
      <trkpt lat="45.32028" lon="4.73415">
        <ele>376</ele>
        <time>2022-03-09T18:57:45Z</time>
      </trkpt>
      <trkpt lat="45.31998" lon="4.73434">
        <ele>376</ele>
        <time>2022-03-09T18:58:29Z</time>
      </trkpt>
      <trkpt lat="45.31957" lon="4.73453">
        <ele>377</ele>
        <time>2022-03-09T18:59:27Z</time>
      </trkpt>
      <trkpt lat="45.31929" lon="4.73461">
        <ele>377</ele>
        <time>2022-03-09T19:00:05Z</time>
      </trkpt>
      <trkpt lat="45.31868" lon="4.73458">
        <ele>378</ele>
        <time>2022-03-09T19:01:26Z</time>
      </trkpt>
      <trkpt lat="45.31857" lon="4.73462">
        <ele>377</ele>
        <time>2022-03-09T19:01:41Z</time>
      </trkpt>
      <trkpt lat="45.3181" lon="4.73509">
        <ele>376</ele>
        <time>2022-03-09T19:02:58Z</time>
      </trkpt>
      <trkpt lat="45.31756" lon="4.73536">
        <ele>373</ele>
        <time>2022-03-09T19:04:15Z</time>
      </trkpt>
      <trkpt lat="45.31708" lon="4.73568">
        <ele>370</ele>
        <time>2022-03-09T19:05:25Z</time>
      </trkpt>
      <trkpt lat="45.31657" lon="4.73619">
        <ele>366</ele>
        <time>2022-03-09T19:06:48Z</time>
      </trkpt>
      <trkpt lat="45.31652" lon="4.73685">
        <ele>364</ele>
        <time>2022-03-09T19:07:51Z</time>
      </trkpt>
      <trkpt lat="45.31636" lon="4.73722">
        <ele>364</ele>
        <time>2022-03-09T19:08:31Z</time>
      </trkpt>
      <trkpt lat="45.31618" lon="4.73737">
        <ele>363</ele>
        <time>2022-03-09T19:08:59Z</time>
      </trkpt>
      <trkpt lat="45.31552" lon="4.73753">
        <ele>359</ele>
        <time>2022-03-09T19:10:29Z</time>
      </trkpt>
      <trkpt lat="45.31537" lon="4.73762">
        <ele>357</ele>
        <time>2022-03-09T19:10:50Z</time>
      </trkpt>
      <trkpt lat="45.31514" lon="4.73785">
        <ele>355</ele>
        <time>2022-03-09T19:11:28Z</time>
      </trkpt>
      <trkpt lat="45.31457" lon="4.73862">
        <ele>353</ele>
        <time>2022-03-09T19:13:13Z</time>
      </trkpt>
      <trkpt lat="45.3144" lon="4.73868">
        <ele>353</ele>
        <time>2022-03-09T19:13:36Z</time>
      </trkpt>
      <trkpt lat="45.31357" lon="4.73866">
        <ele>348</ele>
        <time>2022-03-09T19:15:27Z</time>
      </trkpt>
      <trkpt lat="45.31333" lon="4.73863">
        <ele>346</ele>
        <time>2022-03-09T19:15:59Z</time>
      </trkpt>
      <trkpt lat="45.31327" lon="4.73855">
        <ele>345</ele>
        <time>2022-03-09T19:16:10Z</time>
      </trkpt>
      <trkpt lat="45.31276" lon="4.73853">
        <ele>345</ele>
        <time>2022-03-09T19:17:18Z</time>
      </trkpt>
      <trkpt lat="45.31248" lon="4.73866">
        <ele>344</ele>
        <time>2022-03-09T19:17:58Z</time>
      </trkpt>
      <trkpt lat="45.31227" lon="4.73892">
        <ele>343</ele>
        <time>2022-03-09T19:18:35Z</time>
      </trkpt>
      <trkpt lat="45.31214" lon="4.739">
        <ele>342</ele>
        <time>2022-03-09T19:18:54Z</time>
      </trkpt>
      <trkpt lat="45.31181" lon="4.73937">
        <ele>340</ele>
        <time>2022-03-09T19:19:50Z</time>
      </trkpt>
      <trkpt lat="45.31157" lon="4.73978">
        <ele>339</ele>
        <time>2022-03-09T19:20:40Z</time>
      </trkpt>
      <trkpt lat="45.31153" lon="4.73998">
        <ele>340</ele>
        <time>2022-03-09T19:20:59Z</time>
      </trkpt>
      <trkpt lat="45.3116" lon="4.74096">
        <ele>337</ele>
        <time>2022-03-09T19:22:32Z</time>
      </trkpt>
      <trkpt lat="45.31144" lon="4.74251">
        <ele>335</ele>
        <time>2022-03-09T19:24:59Z</time>
      </trkpt>
      <trkpt lat="45.31145" lon="4.74288">
        <ele>335</ele>
        <time>2022-03-09T19:25:33Z</time>
      </trkpt>
      <trkpt lat="45.31165" lon="4.74346">
        <ele>334</ele>
        <time>2022-03-09T19:26:34Z</time>
      </trkpt>
      <trkpt lat="45.31168" lon="4.74372">
        <ele>334</ele>
        <time>2022-03-09T19:26:59Z</time>
      </trkpt>
      <trkpt lat="45.31154" lon="4.74428">
        <ele>335</ele>
        <time>2022-03-09T19:27:55Z</time>
      </trkpt>
      <trkpt lat="45.31147" lon="4.74478">
        <ele>333</ele>
        <time>2022-03-09T19:28:42Z</time>
      </trkpt>
      <trkpt lat="45.3109" lon="4.74552">
        <ele>336</ele>
        <time>2022-03-09T19:30:25Z</time>
      </trkpt>
      <trkpt lat="45.31084" lon="4.74571">
        <ele>336</ele>
        <time>2022-03-09T19:30:45Z</time>
      </trkpt>
      <trkpt lat="45.31084" lon="4.7459">
        <ele>336</ele>
        <time>2022-03-09T19:31:03Z</time>
      </trkpt>
      <trkpt lat="45.31088" lon="4.74626">
        <ele>336</ele>
        <time>2022-03-09T19:31:37Z</time>
      </trkpt>
      <trkpt lat="45.31106" lon="4.74696">
        <ele>334</ele>
        <time>2022-03-09T19:32:47Z</time>
      </trkpt>
      <trkpt lat="45.31132" lon="4.74768">
        <ele>332</ele>
        <time>2022-03-09T19:34:03Z</time>
      </trkpt>
      <trkpt lat="45.31141" lon="4.74826">
        <ele>330</ele>
        <time>2022-03-09T19:34:59Z</time>
      </trkpt>
      <trkpt lat="45.31187" lon="4.7495">
        <ele>326</ele>
        <time>2022-03-09T19:37:10Z</time>
      </trkpt>
      <trkpt lat="45.3121" lon="4.75055">
        <ele>325</ele>
        <time>2022-03-09T19:38:53Z</time>
      </trkpt>
      <trkpt lat="45.31253" lon="4.75162">
        <ele>323</ele>
        <time>2022-03-09T19:40:49Z</time>
      </trkpt>
      <trkpt lat="45.31259" lon="4.75191">
        <ele>323</ele>
        <time>2022-03-09T19:41:17Z</time>
      </trkpt>
      <trkpt lat="45.31275" lon="4.75233">
        <ele>322</ele>
        <time>2022-03-09T19:42:02Z</time>
      </trkpt>
      <trkpt lat="45.31305" lon="4.75284">
        <ele>319</ele>
        <time>2022-03-09T19:43:05Z</time>
      </trkpt>
      <trkpt lat="45.31384" lon="4.75351">
        <ele>310</ele>
        <time>2022-03-09T19:45:07Z</time>
      </trkpt>
      <trkpt lat="45.31431" lon="4.754">
        <ele>307</ele>
        <time>2022-03-09T19:46:25Z</time>
      </trkpt>
      <trkpt lat="45.315" lon="4.75512">
        <ele>292</ele>
        <time>2022-03-09T19:48:45Z</time>
      </trkpt>
      <trkpt lat="45.31511" lon="4.75519">
        <ele>287</ele>
        <time>2022-03-09T19:49:01Z</time>
      </trkpt>
      <trkpt lat="45.31512" lon="4.75531">
        <ele>286</ele>
        <time>2022-03-09T19:49:12Z</time>
      </trkpt>
      <trkpt lat="45.31501" lon="4.75549">
        <ele>290</ele>
        <time>2022-03-09T19:49:35Z</time>
      </trkpt>
      <trkpt lat="45.31509" lon="4.75559">
        <ele>286</ele>
        <time>2022-03-09T19:49:49Z</time>
      </trkpt>
      <trkpt lat="45.31518" lon="4.75554">
        <ele>283</ele>
        <time>2022-03-09T19:50:02Z</time>
      </trkpt>
      <trkpt lat="45.31522" lon="4.75556">
        <ele>281</ele>
        <time>2022-03-09T19:50:07Z</time>
      </trkpt>
      <trkpt lat="45.31517" lon="4.75598">
        <ele>281</ele>
        <time>2022-03-09T19:50:47Z</time>
      </trkpt>
      <trkpt lat="45.31533" lon="4.75637">
        <ele>272</ele>
        <time>2022-03-09T19:51:30Z</time>
      </trkpt>
      <trkpt lat="45.31531" lon="4.75655">
        <ele>272</ele>
        <time>2022-03-09T19:51:47Z</time>
      </trkpt>
      <trkpt lat="45.31535" lon="4.75669">
        <ele>270</ele>
        <time>2022-03-09T19:52:01Z</time>
      </trkpt>
      <trkpt lat="45.31547" lon="4.75688">
        <ele>263</ele>
        <time>2022-03-09T19:52:25Z</time>
      </trkpt>
      <trkpt lat="45.3155" lon="4.75704">
        <ele>261</ele>
        <time>2022-03-09T19:52:41Z</time>
      </trkpt>
      <trkpt lat="45.31557" lon="4.75706">
        <ele>259</ele>
        <time>2022-03-09T19:52:50Z</time>
      </trkpt>
      <trkpt lat="45.31563" lon="4.75715">
        <ele>256</ele>
        <time>2022-03-09T19:53:02Z</time>
      </trkpt>
      <trkpt lat="45.31591" lon="4.75737">
        <ele>246</ele>
        <time>2022-03-09T19:53:44Z</time>
      </trkpt>
      <trkpt lat="45.316" lon="4.7577">
        <ele>242</ele>
        <time>2022-03-09T19:54:18Z</time>
      </trkpt>
      <trkpt lat="45.31635" lon="4.75806">
        <ele>231</ele>
        <time>2022-03-09T19:55:15Z</time>
      </trkpt>
      <trkpt lat="45.31644" lon="4.75825">
        <ele>229</ele>
        <time>2022-03-09T19:55:37Z</time>
      </trkpt>
      <trkpt lat="45.31641" lon="4.7583">
        <ele>230</ele>
        <time>2022-03-09T19:55:43Z</time>
      </trkpt>
      <trkpt lat="45.31627" lon="4.75824">
        <ele>233</ele>
        <time>2022-03-09T19:56:02Z</time>
      </trkpt>
      <trkpt lat="45.3162" lon="4.75824">
        <ele>235</ele>
        <time>2022-03-09T19:56:12Z</time>
      </trkpt>
      <trkpt lat="45.31617" lon="4.75829">
        <ele>236</ele>
        <time>2022-03-09T19:56:18Z</time>
      </trkpt>
      <trkpt lat="45.31619" lon="4.75836">
        <ele>235</ele>
        <time>2022-03-09T19:56:25Z</time>
      </trkpt>
      <trkpt lat="45.31635" lon="4.75848">
        <ele>230</ele>
        <time>2022-03-09T19:56:49Z</time>
      </trkpt>
      <trkpt lat="45.31654" lon="4.75883">
        <ele>222</ele>
        <time>2022-03-09T19:57:31Z</time>
      </trkpt>
      <trkpt lat="45.3166" lon="4.75918">
        <ele>217</ele>
        <time>2022-03-09T19:58:05Z</time>
      </trkpt>
      <trkpt lat="45.31687" lon="4.75952">
        <ele>207</ele>
        <time>2022-03-09T19:58:53Z</time>
      </trkpt>
      <trkpt lat="45.31683" lon="4.75987">
        <ele>201</ele>
        <time>2022-03-09T19:59:26Z</time>
      </trkpt>
      <trkpt lat="45.31689" lon="4.7599">
        <ele>200</ele>
        <time>2022-03-09T19:59:34Z</time>
      </trkpt>
      <trkpt lat="45.31698" lon="4.75981">
        <ele>201</ele>
        <time>2022-03-09T19:59:49Z</time>
      </trkpt>
      <trkpt lat="45.31704" lon="4.75988">
        <ele>199</ele>
        <time>2022-03-09T19:59:59Z</time>
      </trkpt>
      <trkpt lat="45.31698" lon="4.76013">
        <ele>197</ele>
        <time>2022-03-09T20:00:24Z</time>
      </trkpt>
      <trkpt lat="45.31703" lon="4.76033">
        <ele>194</ele>
        <time>2022-03-09T20:00:44Z</time>
      </trkpt>
      <trkpt lat="45.31725" lon="4.76093">
        <ele>186</ele>
        <time>2022-03-09T20:01:48Z</time>
      </trkpt>
      <trkpt lat="45.3176" lon="4.76154">
        <ele>177</ele>
        <time>2022-03-09T20:03:02Z</time>
      </trkpt>
      <trkpt lat="45.31764" lon="4.76177">
        <ele>174</ele>
        <time>2022-03-09T20:03:24Z</time>
      </trkpt>
      <trkpt lat="45.31751" lon="4.76225">
        <ele>172</ele>
        <time>2022-03-09T20:04:12Z</time>
      </trkpt>
      <trkpt lat="45.3175" lon="4.76257">
        <ele>169</ele>
        <time>2022-03-09T20:04:42Z</time>
      </trkpt>
      <trkpt lat="45.31741" lon="4.76272">
        <ele>169</ele>
        <time>2022-03-09T20:05:01Z</time>
      </trkpt>
      <trkpt lat="45.31738" lon="4.76297">
        <ele>165</ele>
        <time>2022-03-09T20:05:24Z</time>
      </trkpt>
      <trkpt lat="45.31686" lon="4.76416">
        <ele>163</ele>
        <time>2022-03-09T20:07:36Z</time>
      </trkpt>
      <trkpt lat="45.31671" lon="4.76478">
        <ele>157</ele>
        <time>2022-03-09T20:08:37Z</time>
      </trkpt>
      <trkpt lat="45.31681" lon="4.76492">
        <ele>153</ele>
        <time>2022-03-09T20:08:56Z</time>
      </trkpt>
      <trkpt lat="45.317" lon="4.76482">
        <ele>151</ele>
        <time>2022-03-09T20:09:23Z</time>
      </trkpt>
      <trkpt lat="45.31714" lon="4.76486">
        <ele>149</ele>
        <time>2022-03-09T20:09:42Z</time>
      </trkpt>
      <trkpt lat="45.31774" lon="4.76555">
        <ele>140</ele>
        <time>2022-03-09T20:11:25Z</time>
      </trkpt>
      <trkpt lat="45.31774" lon="4.76573">
        <ele>140</ele>
        <time>2022-03-09T20:11:42Z</time>
      </trkpt>
      <trkpt lat="45.31762" lon="4.76602">
        <ele>139</ele>
        <time>2022-03-09T20:12:14Z</time>
      </trkpt>
      <trkpt lat="45.31776" lon="4.7662">
        <ele>139</ele>
        <time>2022-03-09T20:12:39Z</time>
      </trkpt>
      <trkpt lat="45.31786" lon="4.76619">
        <ele>139</ele>
        <time>2022-03-09T20:12:52Z</time>
      </trkpt>
      <trkpt lat="45.31796" lon="4.7663">
        <ele>138</ele>
        <time>2022-03-09T20:13:09Z</time>
      </trkpt>
      <trkpt lat="45.31837" lon="4.76704">
        <ele>136</ele>
        <time>2022-03-09T20:14:37Z</time>
      </trkpt>
      <trkpt lat="45.31845" lon="4.7673">
        <ele>136</ele>
        <time>2022-03-09T20:15:04Z</time>
      </trkpt>
      <trkpt lat="45.31893" lon="4.76826">
        <ele>137</ele>
        <time>2022-03-09T20:16:55Z</time>
      </trkpt>
      <trkpt lat="45.31919" lon="4.76888">
        <ele>138</ele>
        <time>2022-03-09T20:18:02Z</time>
      </trkpt>
      <trkpt lat="45.31918" lon="4.76906">
        <ele>139</ele>
        <time>2022-03-09T20:18:19Z</time>
      </trkpt>
      <trkpt lat="45.31916" lon="4.76909">
        <ele>139</ele>
        <time>2022-03-09T20:18:23Z</time>
      </trkpt>
      <trkpt lat="45.31912" lon="4.76905">
        <ele>139</ele>
        <time>2022-03-09T20:18:30Z</time>
      </trkpt>
      <trkpt lat="45.31913" lon="4.76898">
        <ele>139</ele>
        <time>2022-03-09T20:18:36Z</time>
      </trkpt>
      <trkpt lat="45.31924" lon="4.76904">
        <ele>139</ele>
        <time>2022-03-09T20:18:52Z</time>
      </trkpt>
      <trkpt lat="45.31925" lon="4.76894">
        <ele>138</ele>
        <time>2022-03-09T20:19:02Z</time>
      </trkpt>
      <trkpt lat="45.31933" lon="4.76901">
        <ele>138</ele>
        <time>2022-03-09T20:19:14Z</time>
      </trkpt>
      <trkpt lat="45.31956" lon="4.76892">
        <ele>138</ele>
        <time>2022-03-09T20:19:46Z</time>
      </trkpt>
      <trkpt lat="45.31957" lon="4.76898">
        <ele>138</ele>
        <time>2022-03-09T20:19:52Z</time>
      </trkpt>
      <trkpt lat="45.31967" lon="4.76908">
        <ele>138</ele>
        <time>2022-03-09T20:20:08Z</time>
      </trkpt>
      <trkpt lat="45.31972" lon="4.76924">
        <ele>138</ele>
        <time>2022-03-09T20:20:25Z</time>
      </trkpt>
      <trkpt lat="45.31978" lon="4.76933">
        <ele>138</ele>
        <time>2022-03-09T20:20:36Z</time>
      </trkpt>
      <trkpt lat="45.31984" lon="4.76934">
        <ele>138</ele>
        <time>2022-03-09T20:20:44Z</time>
      </trkpt>
      <trkpt lat="45.32" lon="4.76929">
        <ele>138</ele>
        <time>2022-03-09T20:21:06Z</time>
      </trkpt>
      <trkpt lat="45.32011" lon="4.76919">
        <ele>138</ele>
        <time>2022-03-09T20:21:24Z</time>
      </trkpt>
      <trkpt lat="45.32064" lon="4.76913">
        <ele>137</ele>
        <time>2022-03-09T20:22:34Z</time>
      </trkpt>
      <trkpt lat="45.321" lon="4.76897">
        <ele>137</ele>
        <time>2022-03-09T20:23:25Z</time>
      </trkpt>
      <trkpt lat="45.3211" lon="4.76896">
        <ele>137</ele>
        <time>2022-03-09T20:23:38Z</time>
      </trkpt>
      <trkpt lat="45.32128" lon="4.76931">
        <ele>137</ele>
        <time>2022-03-09T20:24:19Z</time>
      </trkpt>
      <trkpt lat="45.32149" lon="4.76962">
        <ele>137</ele>
        <time>2022-03-09T20:24:59Z</time>
      </trkpt>
      <trkpt lat="45.32166" lon="4.76979">
        <ele>137</ele>
        <time>2022-03-09T20:25:27Z</time>
      </trkpt>
      <trkpt lat="45.32172" lon="4.76992">
        <ele>137</ele>
        <time>2022-03-09T20:25:42Z</time>
      </trkpt>
      <trkpt lat="45.32183" lon="4.77046">
        <ele>137</ele>
        <time>2022-03-09T20:26:34Z</time>
      </trkpt>
      <trkpt lat="45.32219" lon="4.77149">
        <ele>137</ele>
        <time>2022-03-09T20:28:22Z</time>
      </trkpt>
      <trkpt lat="45.32232" lon="4.77176">
        <ele>137</ele>
        <time>2022-03-09T20:28:53Z</time>
      </trkpt>
      <trkpt lat="45.32262" lon="4.7727">
        <ele>137</ele>
        <time>2022-03-09T20:30:30Z</time>
      </trkpt>
      <trkpt lat="45.32296" lon="4.77391">
        <ele>138</ele>
        <time>2022-03-09T20:32:32Z</time>
      </trkpt>
      <trkpt lat="45.32304" lon="4.77444">
        <ele>138</ele>
        <time>2022-03-09T20:33:23Z</time>
      </trkpt>
      <trkpt lat="45.32317" lon="4.77492">
        <ele>138</ele>
        <time>2022-03-09T20:34:11Z</time>
      </trkpt>
      <trkpt lat="45.32336" lon="4.77623">
        <ele>136</ele>
        <time>2022-03-09T20:36:17Z</time>
      </trkpt>
      <trkpt lat="45.32329" lon="4.77634">
        <ele>136</ele>
        <time>2022-03-09T20:36:31Z</time>
      </trkpt>
      <trkpt lat="45.32309" lon="4.77644">
        <ele>136</ele>
        <time>2022-03-09T20:36:59Z</time>
      </trkpt>
      <trkpt lat="45.32256" lon="4.77653">
        <ele>137</ele>
        <time>2022-03-09T20:38:10Z</time>
      </trkpt>
      <trkpt lat="45.32253" lon="4.77658">
        <ele>137</ele>
        <time>2022-03-09T20:38:16Z</time>
      </trkpt>
      <trkpt lat="45.32271" lon="4.77712">
        <ele>136</ele>
        <time>2022-03-09T20:39:12Z</time>
      </trkpt>
      <trkpt lat="45.32299" lon="4.77777">
        <ele>136</ele>
        <time>2022-03-09T20:40:24Z</time>
      </trkpt>
      <trkpt lat="45.3231" lon="4.77784">
        <ele>136</ele>
        <time>2022-03-09T20:40:40Z</time>
      </trkpt>
      <trkpt lat="45.32315" lon="4.77775">
        <ele>136</ele>
        <time>2022-03-09T20:40:51Z</time>
      </trkpt>
      <trkpt lat="45.32309" lon="4.77782">
        <ele>136</ele>
        <time>2022-03-09T20:41:01Z</time>
      </trkpt>
      <trkpt lat="45.32311" lon="4.7778">
        <ele>136</ele>
        <time>2022-03-09T20:41:04Z</time>
      </trkpt>
    </trkseg>
  </trk>
</gpx>